PWSweather.com
Personal Weather Stations
Station Observations
PRATO
PratoIT 59100

PratoIT 59100

Lat: 43.8956799, Lon: 11.0845155

Elevation: 164

Station Type: Davis Vantage Vue

http://www.meteoprato.it

High Low Average
Temperature 78.0°F25.6°C 59.4°F15.2°C 69.7°F20.9°C
Dew Point 50.3°F10.2°C 42.2°F5.7°C 45.9°F7.7°C
Winds 12.8 mph 20.6 kmh Calm Calm 7.0 mph NE11.3 kmh NE
Wind Gusts 25.0 mph40.2 kmh -- 14.0 mph22.5 kmh
Humidity 56% 34% 43%
Pressure 30.33 in1027.1 mb 30.21 in1023.0 mb -
Precipitation 0.00 in0.0 mm - -
Hour Temp Dew Point Humidity Winds Wind Gusts Pressure Precip Precip Rate Daily Precip Total
12:00 AM 63.2°F17.3°C 43.2°F6.2°C 48% 3.6 mph NE5.8 kmh NE 6.0 mph9.7 kmh 30.33 in1027.1 mb 0.00 in0.0 mm 0.00 in0.0 mm 0.00 in0.0 mm
12:05 AM 62.3°F16.8°C 43.4°F6.3°C 50% 3.1 mph NE5.0 kmh NE 5.0 mph8.0 kmh 30.33 in1027.1 mb 0.00 in0.0 mm 0.00 in0.0 mm 0.00 in0.0 mm
12:10 AM 61.7°F16.5°C 43.4°F6.3°C 51% 3.0 mph NE4.8 kmh NE 6.0 mph9.7 kmh 30.33 in1027.1 mb 0.00 in0.0 mm 0.00 in0.0 mm 0.00 in0.0 mm
12:15 AM 61.1°F16.2°C 43.3°F6.3°C 52% 3.0 mph NE4.8 kmh NE 6.0 mph9.7 kmh 30.33 in1027.1 mb 0.00 in0.0 mm 0.00 in0.0 mm 0.00 in0.0 mm
12:20 AM 60.8°F16.0°C 43.6°F6.4°C 53% 3.0 mph NE4.8 kmh NE 5.0 mph8.0 kmh 30.33 in1027.1 mb 0.00 in0.0 mm 0.00 in0.0 mm 0.00 in0.0 mm
12:25 AM 60.4°F15.8°C 43.7°F6.5°C 54% 3.0 mph NE4.8 kmh NE 5.0 mph8.0 kmh 30.33 in1027.1 mb 0.00 in0.0 mm 0.00 in0.0 mm 0.00 in0.0 mm
12:30 AM 60.1°F15.6°C 43.4°F6.3°C 54% 3.0 mph NE4.8 kmh NE 5.0 mph8.0 kmh 30.32 in1026.8 mb 0.00 in0.0 mm 0.00 in0.0 mm 0.00 in0.0 mm
12:35 AM 59.8°F15.4°C 43.6°F6.4°C 55% 3.0 mph NE4.8 kmh NE 5.0 mph8.0 kmh 30.33 in1027.1 mb 0.00 in0.0 mm 0.00 in0.0 mm 0.00 in0.0 mm
12:40 AM 59.7°F15.4°C 43.5°F6.4°C 55% 2.9 mph NE4.7 kmh NE 4.0 mph6.4 kmh 30.32 in1026.8 mb 0.00 in0.0 mm 0.00 in0.0 mm 0.00 in0.0 mm
12:45 AM 59.6°F15.3°C 43.4°F6.3°C 55% 2.4 mph NE3.9 kmh NE 3.0 mph4.8 kmh 30.32 in1026.8 mb 0.00 in0.0 mm 0.00 in0.0 mm 0.00 in0.0 mm
12:50 AM 59.6°F15.3°C 43.9°F6.6°C 56% 1.7 mph NE2.7 kmh NE 2.0 mph3.2 kmh 30.32 in1026.8 mb 0.00 in0.0 mm 0.00 in0.0 mm 0.00 in0.0 mm
12:55 AM 59.6°F15.3°C 43.9°F6.6°C 56% 1.1 mph NNE1.8 kmh NNE 2.0 mph3.2 kmh 30.33 in1027.1 mb 0.00 in0.0 mm 0.00 in0.0 mm 0.00 in0.0 mm
01:00 AM 59.6°F15.3°C 43.9°F6.6°C 56% 0.5 mph NNE0.8 kmh NNE 2.0 mph3.2 kmh 30.33 in1027.1 mb 0.00 in0.0 mm 0.00 in0.0 mm 0.00 in0.0 mm
01:05 AM 59.6°F15.3°C 43.9°F6.6°C 56% Calm Calm 1.0 mph1.6 kmh 30.32 in1026.8 mb 0.00 in0.0 mm 0.00 in0.0 mm 0.00 in0.0 mm
01:10 AM 59.6°F15.3°C 43.9°F6.6°C 56% Calm Calm 1.0 mph1.6 kmh 30.32 in1026.8 mb 0.00 in0.0 mm 0.00 in0.0 mm 0.00 in0.0 mm
01:15 AM 59.6°F15.3°C 43.9°F6.6°C 56% Calm Calm 1.0 mph1.6 kmh 30.32 in1026.8 mb 0.00 in0.0 mm 0.00 in0.0 mm 0.00 in0.0 mm
01:20 AM 59.5°F15.3°C 43.3°F6.3°C 55% Calm Calm -- 30.32 in1026.8 mb 0.00 in0.0 mm 0.00 in0.0 mm 0.00 in0.0 mm
01:25 AM 59.4°F15.2°C 43.2°F6.2°C 55% Calm Calm -- 30.32 in1026.8 mb 0.00 in0.0 mm 0.00 in0.0 mm 0.00 in0.0 mm
01:30 AM 59.7°F15.4°C 43.5°F6.4°C 55% Calm Calm 2.0 mph3.2 kmh 30.32 in1026.8 mb 0.00 in0.0 mm 0.00 in0.0 mm 0.00 in0.0 mm
01:35 AM 60.1°F15.6°C 43.9°F6.6°C 55% Calm Calm 2.0 mph3.2 kmh 30.32 in1026.8 mb 0.00 in0.0 mm 0.00 in0.0 mm 0.00 in0.0 mm
01:40 AM 60.3°F15.7°C 43.6°F6.4°C 54% 0.4 mph NE0.6 kmh NE 3.0 mph4.8 kmh 30.32 in1026.8 mb 0.00 in0.0 mm 0.00 in0.0 mm 0.00 in0.0 mm
01:45 AM 60.2°F15.7°C 43.5°F6.4°C 54% 0.9 mph NE1.4 kmh NE 3.0 mph4.8 kmh 30.32 in1026.8 mb 0.00 in0.0 mm 0.00 in0.0 mm 0.00 in0.0 mm
01:50 AM 60.1°F15.6°C 43.9°F6.6°C 55% 1.0 mph NE1.6 kmh NE 3.0 mph4.8 kmh 30.32 in1026.8 mb 0.00 in0.0 mm 0.00 in0.0 mm 0.00 in0.0 mm
01:55 AM 60.1°F15.6°C 43.9°F6.6°C 55% 0.6 mph NE1.0 kmh NE 1.0 mph1.6 kmh 30.32 in1026.8 mb 0.00 in0.0 mm 0.00 in0.0 mm 0.00 in0.0 mm
02:00 AM 59.9°F15.5°C 44.2°F6.8°C 56% 0.1 mph NE0.2 kmh NE 1.0 mph1.6 kmh 30.32 in1026.8 mb 0.00 in0.0 mm 0.00 in0.0 mm 0.00 in0.0 mm
02:05 AM 59.8°F15.4°C 44.1°F6.7°C 56% Calm Calm 2.0 mph3.2 kmh 30.32 in1026.8 mb 0.00 in0.0 mm 0.00 in0.0 mm 0.00 in0.0 mm
02:10 AM 60.3°F15.7°C 44.1°F6.7°C 55% 0.5 mph NE0.8 kmh NE 4.0 mph6.4 kmh 30.32 in1026.8 mb 0.00 in0.0 mm 0.00 in0.0 mm 0.00 in0.0 mm
02:15 AM 60.6°F15.9°C 43.9°F6.6°C 54% 1.4 mph NE2.3 kmh NE 4.0 mph6.4 kmh 30.32 in1026.8 mb 0.00 in0.0 mm 0.00 in0.0 mm 0.00 in0.0 mm
02:20 AM 60.3°F15.7°C 44.1°F6.7°C 55% 2.2 mph NE3.5 kmh NE 5.0 mph8.0 kmh 30.32 in1026.8 mb 0.00 in0.0 mm 0.00 in0.0 mm 0.00 in0.0 mm
02:25 AM 60.0°F15.6°C 43.8°F6.6°C 55% 2.2 mph NE3.5 kmh NE 5.0 mph8.0 kmh 30.32 in1026.8 mb 0.00 in0.0 mm 0.00 in0.0 mm 0.00 in0.0 mm
02:30 AM 60.2°F15.7°C 44.0°F6.7°C 55% 2.0 mph NE3.2 kmh NE 5.0 mph8.0 kmh 30.32 in1026.8 mb 0.00 in0.0 mm 0.00 in0.0 mm 0.00 in0.0 mm
02:35 AM 60.5°F15.8°C 43.8°F6.6°C 54% 2.2 mph NE3.5 kmh NE 7.0 mph11.3 kmh 30.32 in1026.8 mb 0.00 in0.0 mm 0.00 in0.0 mm 0.00 in0.0 mm
02:40 AM 60.4°F15.8°C 44.2°F6.8°C 55% 2.7 mph NE4.3 kmh NE 7.0 mph11.3 kmh 30.32 in1026.8 mb 0.00 in0.0 mm 0.00 in0.0 mm 0.00 in0.0 mm
02:45 AM 60.5°F15.8°C 43.8°F6.6°C 54% 2.7 mph NE4.3 kmh NE 5.0 mph8.0 kmh 30.32 in1026.8 mb 0.00 in0.0 mm 0.00 in0.0 mm 0.00 in0.0 mm
02:50 AM 61.1°F16.2°C 43.8°F6.6°C 53% 2.2 mph NE3.5 kmh NE 5.0 mph8.0 kmh 30.32 in1026.8 mb 0.00 in0.0 mm 0.00 in0.0 mm 0.00 in0.0 mm
02:55 AM 60.9°F16.1°C 44.1°F6.7°C 54% 2.0 mph NE3.2 kmh NE 4.0 mph6.4 kmh 30.31 in1026.4 mb 0.00 in0.0 mm 0.00 in0.0 mm 0.00 in0.0 mm
03:00 AM 60.8°F16.0°C 44.0°F6.7°C 54% 1.9 mph NE3.1 kmh NE 5.0 mph8.0 kmh 30.31 in1026.4 mb 0.00 in0.0 mm 0.00 in0.0 mm 0.00 in0.0 mm
03:05 AM 61.3°F16.3°C 43.5°F6.4°C 52% 2.1 mph NE3.4 kmh NE 8.0 mph12.9 kmh 30.31 in1026.4 mb 0.00 in0.0 mm 0.00 in0.0 mm 0.00 in0.0 mm
03:10 AM 62.5°F16.9°C 43.6°F6.4°C 50% 2.6 mph NE4.2 kmh NE 8.0 mph12.9 kmh 30.31 in1026.4 mb 0.00 in0.0 mm 0.00 in0.0 mm 0.00 in0.0 mm
03:15 AM 63.3°F17.4°C 43.8°F6.6°C 49% 3.3 mph NE5.3 kmh NE 11.0 mph17.7 kmh 30.30 in1026.1 mb 0.00 in0.0 mm 0.00 in0.0 mm 0.00 in0.0 mm
03:20 AM 63.8°F17.7°C 43.7°F6.5°C 48% 4.3 mph NE6.9 kmh NE 11.0 mph17.7 kmh 30.30 in1026.1 mb 0.00 in0.0 mm 0.00 in0.0 mm 0.00 in0.0 mm
03:25 AM 63.8°F17.7°C 43.7°F6.5°C 48% 5.4 mph NE8.7 kmh NE 10.0 mph16.1 kmh 30.30 in1026.1 mb 0.00 in0.0 mm 0.00 in0.0 mm 0.00 in0.0 mm
03:30 AM 64.1°F17.8°C 43.4°F6.3°C 47% 5.6 mph NE9.0 kmh NE 11.0 mph17.7 kmh 30.30 in1026.1 mb 0.00 in0.0 mm 0.00 in0.0 mm 0.00 in0.0 mm
03:35 AM 64.3°F17.9°C 43.6°F6.4°C 47% 5.6 mph NE9.0 kmh NE 11.0 mph17.7 kmh 30.30 in1026.1 mb 0.00 in0.0 mm 0.00 in0.0 mm 0.00 in0.0 mm
03:40 AM 64.3°F17.9°C 43.6°F6.4°C 47% 6.0 mph NE9.7 kmh NE 9.0 mph14.5 kmh 30.30 in1026.1 mb 0.00 in0.0 mm 0.00 in0.0 mm 0.00 in0.0 mm
03:45 AM 64.5°F18.1°C 43.3°F6.3°C 46% 5.4 mph NE8.7 kmh NE 12.0 mph19.3 kmh 30.29 in1025.7 mb 0.00 in0.0 mm 0.00 in0.0 mm 0.00 in0.0 mm
03:50 AM 64.8°F18.2°C 43.5°F6.4°C 46% 4.9 mph NE7.9 kmh NE 15.0 mph24.1 kmh 30.29 in1025.7 mb 0.00 in0.0 mm 0.00 in0.0 mm 0.00 in0.0 mm
03:55 AM 65.2°F18.4°C 43.3°F6.3°C 45% 6.0 mph NE9.7 kmh NE 16.0 mph25.7 kmh 30.29 in1025.7 mb 0.00 in0.0 mm 0.00 in0.0 mm 0.00 in0.0 mm
04:00 AM 65.2°F18.4°C 43.3°F6.3°C 45% 6.9 mph NE11.1 kmh NE 16.0 mph25.7 kmh 30.29 in1025.7 mb 0.00 in0.0 mm 0.00 in0.0 mm 0.00 in0.0 mm
04:05 AM 65.1°F18.4°C 43.2°F6.2°C 45% 6.0 mph NE9.7 kmh NE 16.0 mph25.7 kmh 30.29 in1025.7 mb 0.00 in0.0 mm 0.00 in0.0 mm 0.00 in0.0 mm
04:10 AM 65.2°F18.4°C 43.3°F6.3°C 45% 5.1 mph NE8.2 kmh NE 16.0 mph25.7 kmh 30.29 in1025.7 mb 0.00 in0.0 mm 0.00 in0.0 mm 0.00 in0.0 mm
04:15 AM 65.1°F18.4°C 43.2°F6.2°C 45% 5.0 mph NE8.0 kmh NE 9.0 mph14.5 kmh 30.28 in1025.4 mb 0.00 in0.0 mm 0.00 in0.0 mm 0.00 in0.0 mm
04:20 AM 65.3°F18.5°C 42.8°F6.0°C 44% 4.5 mph NE7.2 kmh NE 14.0 mph22.5 kmh 30.28 in1025.4 mb 0.00 in0.0 mm 0.00 in0.0 mm 0.00 in0.0 mm
04:25 AM 65.4°F18.6°C 42.9°F6.1°C 44% 4.9 mph NE7.9 kmh NE 14.0 mph22.5 kmh 30.28 in1025.4 mb 0.00 in0.0 mm 0.00 in0.0 mm 0.00 in0.0 mm
04:30 AM 65.4°F18.6°C 42.9°F6.1°C 44% 6.1 mph NE9.8 kmh NE 13.0 mph20.9 kmh 30.28 in1025.4 mb 0.00 in0.0 mm 0.00 in0.0 mm 0.00 in0.0 mm
04:35 AM 65.5°F18.6°C 43.0°F6.1°C 44% 6.3 mph NE10.1 kmh NE 12.0 mph19.3 kmh 30.28 in1025.4 mb 0.00 in0.0 mm 0.00 in0.0 mm 0.00 in0.0 mm
04:40 AM 65.5°F18.6°C 43.0°F6.1°C 44% 6.0 mph NE9.7 kmh NE 12.0 mph19.3 kmh 30.28 in1025.4 mb 0.00 in0.0 mm 0.00 in0.0 mm 0.00 in0.0 mm
04:45 AM 65.6°F18.7°C 43.1°F6.2°C 44% 5.5 mph NE8.9 kmh NE 14.0 mph22.5 kmh 30.28 in1025.4 mb 0.00 in0.0 mm 0.00 in0.0 mm 0.00 in0.0 mm
04:50 AM 65.6°F18.7°C 43.1°F6.2°C 44% 5.4 mph NE8.7 kmh NE 14.0 mph22.5 kmh 30.28 in1025.4 mb 0.00 in0.0 mm 0.00 in0.0 mm 0.00 in0.0 mm
04:55 AM 65.4°F18.6°C 42.9°F6.1°C 44% 5.5 mph NE8.9 kmh NE 14.0 mph22.5 kmh 30.28 in1025.4 mb 0.00 in0.0 mm 0.00 in0.0 mm 0.00 in0.0 mm
05:00 AM 65.6°F18.7°C 42.5°F5.8°C 43% 4.6 mph NE7.4 kmh NE 15.0 mph24.1 kmh 30.29 in1025.7 mb 0.00 in0.0 mm 0.00 in0.0 mm 0.00 in0.0 mm
05:05 AM 65.3°F18.5°C 42.8°F6.0°C 44% 4.5 mph NE7.2 kmh NE 15.0 mph24.1 kmh 30.29 in1025.7 mb 0.00 in0.0 mm 0.00 in0.0 mm 0.00 in0.0 mm
05:10 AM 64.5°F18.1°C 42.7°F5.9°C 45% 4.3 mph SW6.9 kmh SW 8.0 mph12.9 kmh 30.29 in1025.7 mb 0.00 in0.0 mm 0.00 in0.0 mm 0.00 in0.0 mm
05:15 AM 63.9°F17.7°C 42.7°F5.9°C 46% 3.7 mph SW6.0 kmh SW 15.0 mph24.1 kmh 30.29 in1025.7 mb 0.00 in0.0 mm 0.00 in0.0 mm 0.00 in0.0 mm
05:20 AM 63.5°F17.5°C 42.9°F6.1°C 47% 3.5 mph SSW5.6 kmh SSW 15.0 mph24.1 kmh 30.28 in1025.4 mb 0.00 in0.0 mm 0.00 in0.0 mm 0.00 in0.0 mm
05:25 AM 63.3°F17.4°C 42.7°F5.9°C 47% 3.4 mph SW5.5 kmh SW 12.0 mph19.3 kmh 30.28 in1025.4 mb 0.00 in0.0 mm 0.00 in0.0 mm 0.00 in0.0 mm
05:30 AM 63.7°F17.6°C 42.5°F5.8°C 46% 3.6 mph SSW5.8 kmh SSW 11.0 mph17.7 kmh 30.28 in1025.4 mb 0.00 in0.0 mm 0.00 in0.0 mm 0.00 in0.0 mm
05:35 AM 63.8°F17.7°C 42.6°F5.9°C 46% 3.4 mph NNE5.5 kmh NNE 10.0 mph16.1 kmh 30.29 in1025.7 mb 0.00 in0.0 mm 0.00 in0.0 mm 0.00 in0.0 mm
05:40 AM 63.6°F17.6°C 43.0°F6.1°C 47% 2.6 mph WNW4.2 kmh WNW 9.0 mph14.5 kmh 30.29 in1025.7 mb 0.00 in0.0 mm 0.00 in0.0 mm 0.00 in0.0 mm
05:45 AM 63.5°F17.5°C 42.9°F6.1°C 47% 2.6 mph SW4.2 kmh SW 9.0 mph14.5 kmh 30.29 in1025.7 mb 0.00 in0.0 mm 0.00 in0.0 mm 0.00 in0.0 mm
05:50 AM 63.9°F17.7°C 42.7°F5.9°C 46% 3.0 mph W4.8 kmh W 10.0 mph16.1 kmh 30.29 in1025.7 mb 0.00 in0.0 mm 0.00 in0.0 mm 0.00 in0.0 mm
05:55 AM 63.6°F17.6°C 43.0°F6.1°C 47% 2.9 mph SW4.7 kmh SW 10.0 mph16.1 kmh 30.29 in1025.7 mb 0.00 in0.0 mm 0.00 in0.0 mm 0.00 in0.0 mm
06:00 AM 63.5°F17.5°C 42.9°F6.1°C 47% 3.1 mph SW5.0 kmh SW 9.0 mph14.5 kmh 30.29 in1025.7 mb 0.00 in0.0 mm 0.00 in0.0 mm 0.00 in0.0 mm
06:05 AM 63.3°F17.4°C 43.3°F6.3°C 48% 3.6 mph SW5.8 kmh SW 8.0 mph12.9 kmh 30.29 in1025.7 mb 0.00 in0.0 mm 0.00 in0.0 mm 0.00 in0.0 mm
06:10 AM 62.9°F17.2°C 43.4°F6.3°C 49% 3.2 mph NE5.1 kmh NE 4.0 mph6.4 kmh 30.30 in1026.1 mb 0.00 in0.0 mm 0.00 in0.0 mm 0.00 in0.0 mm
06:15 AM 63.3°F17.4°C 42.7°F5.9°C 47% 2.4 mph NE3.9 kmh NE 4.0 mph6.4 kmh 30.30 in1026.1 mb 0.00 in0.0 mm 0.00 in0.0 mm 0.00 in0.0 mm
06:20 AM 64.3°F17.9°C 42.5°F5.8°C 45% 2.1 mph SSW3.4 kmh SSW 9.0 mph14.5 kmh 30.29 in1025.7 mb 0.00 in0.0 mm 0.00 in0.0 mm 0.00 in0.0 mm
06:25 AM 64.8°F18.2°C 42.4°F5.8°C 44% 2.6 mph SW4.2 kmh SW 9.0 mph14.5 kmh 30.30 in1026.1 mb 0.00 in0.0 mm 0.00 in0.0 mm 0.00 in0.0 mm
06:30 AM 65.0°F18.3°C 43.1°F6.2°C 45% 3.1 mph SW5.0 kmh SW 9.0 mph14.5 kmh 30.30 in1026.1 mb 0.00 in0.0 mm 0.00 in0.0 mm 0.00 in0.0 mm
06:35 AM 65.7°F18.7°C 42.6°F5.9°C 43% 2.6 mph SW4.2 kmh SW 6.0 mph9.7 kmh 30.30 in1026.1 mb 0.00 in0.0 mm 0.00 in0.0 mm 0.00 in0.0 mm
06:40 AM 66.0°F18.9°C 42.2°F5.7°C 42% 1.9 mph SW3.1 kmh SW 6.0 mph9.7 kmh 30.30 in1026.1 mb 0.00 in0.0 mm 0.00 in0.0 mm 0.00 in0.0 mm
06:45 AM 66.4°F19.1°C 42.6°F5.9°C 42% 1.9 mph SW3.1 kmh SW 6.0 mph9.7 kmh 30.30 in1026.1 mb 0.00 in0.0 mm 0.00 in0.0 mm 0.00 in0.0 mm
06:50 AM 66.6°F19.2°C 42.8°F6.0°C 42% 2.1 mph ENE3.4 kmh ENE 12.0 mph19.3 kmh 30.30 in1026.1 mb 0.00 in0.0 mm 0.00 in0.0 mm 0.00 in0.0 mm
06:55 AM 66.8°F19.3°C 43.0°F6.1°C 42% 2.6 mph NE4.2 kmh NE 12.0 mph19.3 kmh 30.30 in1026.1 mb 0.00 in0.0 mm 0.00 in0.0 mm 0.00 in0.0 mm
07:00 AM 66.7°F19.3°C 42.9°F6.1°C 42% 3.4 mph NE5.5 kmh NE 16.0 mph25.7 kmh 30.30 in1026.1 mb 0.00 in0.0 mm 0.00 in0.0 mm 0.00 in0.0 mm
07:05 AM 67.0°F19.4°C 42.5°F5.8°C 41% 5.3 mph NE8.5 kmh NE 20.0 mph32.2 kmh 30.30 in1026.1 mb 0.00 in0.0 mm 0.00 in0.0 mm 0.00 in0.0 mm
07:10 AM 67.2°F19.6°C 42.7°F5.9°C 41% 8.3 mph NE13.4 kmh NE 20.0 mph32.2 kmh 30.30 in1026.1 mb 0.00 in0.0 mm 0.00 in0.0 mm 0.00 in0.0 mm
07:15 AM 67.2°F19.6°C 43.3°F6.3°C 42% 10.3 mph NE16.6 kmh NE 17.0 mph27.4 kmh 30.31 in1026.4 mb 0.00 in0.0 mm 0.00 in0.0 mm 0.00 in0.0 mm
07:20 AM 67.4°F19.7°C 42.9°F6.1°C 41% 10.7 mph NE17.2 kmh NE 20.0 mph32.2 kmh 30.31 in1026.4 mb 0.00 in0.0 mm 0.00 in0.0 mm 0.00 in0.0 mm
07:25 AM 67.5°F19.7°C 43.0°F6.1°C 41% 10.4 mph NE16.7 kmh NE 20.0 mph32.2 kmh 30.31 in1026.4 mb 0.00 in0.0 mm 0.00 in0.0 mm 0.00 in0.0 mm
07:30 AM 67.5°F19.7°C 43.0°F6.1°C 41% 9.7 mph NE15.6 kmh NE 15.0 mph24.1 kmh 30.31 in1026.4 mb 0.00 in0.0 mm 0.00 in0.0 mm 0.00 in0.0 mm
07:35 AM 67.6°F19.8°C 43.1°F6.2°C 41% 8.7 mph NE14.0 kmh NE 15.0 mph24.1 kmh 30.32 in1026.8 mb 0.00 in0.0 mm 0.00 in0.0 mm 0.00 in0.0 mm
07:40 AM 67.8°F19.9°C 43.2°F6.2°C 41% 8.1 mph NE13.0 kmh NE 14.0 mph22.5 kmh 30.32 in1026.8 mb 0.00 in0.0 mm 0.00 in0.0 mm 0.00 in0.0 mm
07:45 AM 67.9°F19.9°C 43.3°F6.3°C 41% 8.0 mph NE12.9 kmh NE 14.0 mph22.5 kmh 30.32 in1026.8 mb 0.00 in0.0 mm 0.00 in0.0 mm 0.00 in0.0 mm
07:50 AM 68.1°F20.1°C 44.1°F6.7°C 42% 7.5 mph NE12.1 kmh NE 12.0 mph19.3 kmh 30.32 in1026.8 mb 0.00 in0.0 mm 0.00 in0.0 mm 0.00 in0.0 mm
07:55 AM 68.3°F20.2°C 43.7°F6.5°C 41% 6.2 mph NE10.0 kmh NE 13.0 mph20.9 kmh 30.32 in1026.8 mb 0.00 in0.0 mm 0.00 in0.0 mm 0.00 in0.0 mm
08:00 AM 68.3°F20.2°C 43.7°F6.5°C 41% 5.5 mph NE8.9 kmh NE 13.0 mph20.9 kmh 30.31 in1026.4 mb 0.00 in0.0 mm 0.00 in0.0 mm 0.00 in0.0 mm
08:05 AM 68.6°F20.3°C 44.6°F7.0°C 42% 6.3 mph NE10.1 kmh NE 11.0 mph17.7 kmh 30.32 in1026.8 mb 0.00 in0.0 mm 0.00 in0.0 mm 0.00 in0.0 mm
08:10 AM 68.7°F20.4°C 44.0°F6.7°C 41% 6.2 mph NE10.0 kmh NE 13.0 mph20.9 kmh 30.32 in1026.8 mb 0.00 in0.0 mm 0.00 in0.0 mm 0.00 in0.0 mm
08:15 AM 68.7°F20.4°C 44.7°F7.1°C 42% 5.7 mph NE9.2 kmh NE 13.0 mph20.9 kmh 30.31 in1026.4 mb 0.00 in0.0 mm 0.00 in0.0 mm 0.00 in0.0 mm
08:20 AM 69.0°F20.6°C 44.3°F6.8°C 41% 5.9 mph NE9.5 kmh NE 11.0 mph17.7 kmh 30.31 in1026.4 mb 0.00 in0.0 mm 0.00 in0.0 mm 0.00 in0.0 mm
08:25 AM 69.1°F20.6°C 44.4°F6.9°C 41% 6.0 mph NE9.7 kmh NE 12.0 mph19.3 kmh 30.31 in1026.4 mb 0.00 in0.0 mm 0.00 in0.0 mm 0.00 in0.0 mm
08:30 AM 69.2°F20.7°C 44.5°F6.9°C 41% 6.1 mph NE9.8 kmh NE 13.0 mph20.9 kmh 30.31 in1026.4 mb 0.00 in0.0 mm 0.00 in0.0 mm 0.00 in0.0 mm
08:35 AM 69.2°F20.7°C 44.5°F6.9°C 41% 6.9 mph NE11.1 kmh NE 19.0 mph30.6 kmh 30.31 in1026.4 mb 0.00 in0.0 mm 0.00 in0.0 mm 0.00 in0.0 mm
08:40 AM 69.3°F20.7°C 45.2°F7.3°C 42% 8.2 mph NE13.2 kmh NE 20.0 mph32.2 kmh 30.31 in1026.4 mb 0.00 in0.0 mm 0.00 in0.0 mm 0.00 in0.0 mm
08:45 AM 69.3°F20.7°C 44.6°F7.0°C 41% 9.6 mph NE15.4 kmh NE 20.0 mph32.2 kmh 30.30 in1026.1 mb 0.00 in0.0 mm 0.00 in0.0 mm 0.00 in0.0 mm
08:50 AM 69.4°F20.8°C 44.7°F7.1°C 41% 10.4 mph NE16.7 kmh NE 22.0 mph35.4 kmh 30.31 in1026.4 mb 0.00 in0.0 mm 0.00 in0.0 mm 0.00 in0.0 mm
08:55 AM 69.5°F20.8°C 44.1°F6.7°C 40% 11.7 mph NE18.8 kmh NE 22.0 mph35.4 kmh 30.30 in1026.1 mb 0.00 in0.0 mm 0.00 in0.0 mm 0.00 in0.0 mm
09:00 AM 69.6°F20.9°C 44.2°F6.8°C 40% 12.8 mph NE20.6 kmh NE 18.0 mph29.0 kmh 30.30 in1026.1 mb 0.00 in0.0 mm 0.00 in0.0 mm 0.00 in0.0 mm
09:05 AM 69.8°F21.0°C 44.4°F6.9°C 40% 12.2 mph NE19.6 kmh NE 18.0 mph29.0 kmh 30.31 in1026.4 mb 0.00 in0.0 mm 0.00 in0.0 mm 0.00 in0.0 mm
09:10 AM 69.9°F21.1°C 44.5°F6.9°C 40% 11.4 mph NE18.3 kmh NE 18.0 mph29.0 kmh 30.31 in1026.4 mb 0.00 in0.0 mm 0.00 in0.0 mm 0.00 in0.0 mm
09:15 AM 70.2°F21.2°C 44.7°F7.1°C 40% 10.8 mph NE17.4 kmh NE 18.0 mph29.0 kmh 30.31 in1026.4 mb 0.00 in0.0 mm 0.00 in0.0 mm 0.00 in0.0 mm
09:20 AM 70.9°F21.6°C 44.7°F7.1°C 39% 9.8 mph NE15.8 kmh NE 18.0 mph29.0 kmh 30.31 in1026.4 mb 0.00 in0.0 mm 0.00 in0.0 mm 0.00 in0.0 mm
09:25 AM 70.9°F21.6°C 44.7°F7.1°C 39% 8.6 mph NE13.8 kmh NE 18.0 mph29.0 kmh 30.31 in1026.4 mb 0.00 in0.0 mm 0.00 in0.0 mm 0.00 in0.0 mm
09:30 AM 71.1°F21.7°C 44.9°F7.2°C 39% 8.7 mph NE14.0 kmh NE 16.0 mph25.7 kmh 30.31 in1026.4 mb 0.00 in0.0 mm 0.00 in0.0 mm 0.00 in0.0 mm
09:35 AM 71.2°F21.8°C 45.0°F7.2°C 39% 9.5 mph NE15.3 kmh NE 15.0 mph24.1 kmh 30.31 in1026.4 mb 0.00 in0.0 mm 0.00 in0.0 mm 0.00 in0.0 mm
09:40 AM 71.6°F22.0°C 44.6°F7.0°C 38% 9.1 mph NE14.6 kmh NE 14.0 mph22.5 kmh 30.31 in1026.4 mb 0.00 in0.0 mm 0.00 in0.0 mm 0.00 in0.0 mm
09:45 AM 72.0°F22.2°C 45.0°F7.2°C 38% 8.0 mph NE12.9 kmh NE 12.0 mph19.3 kmh 30.31 in1026.4 mb 0.00 in0.0 mm 0.00 in0.0 mm 0.00 in0.0 mm
09:50 AM 72.1°F22.3°C 44.4°F6.9°C 37% 6.8 mph NE10.9 kmh NE 17.0 mph27.4 kmh 30.31 in1026.4 mb 0.00 in0.0 mm 0.00 in0.0 mm 0.00 in0.0 mm
09:55 AM 71.8°F22.1°C 44.8°F7.1°C 38% 7.2 mph NE11.6 kmh NE 18.0 mph29.0 kmh 30.31 in1026.4 mb 0.00 in0.0 mm 0.00 in0.0 mm 0.00 in0.0 mm
10:00 AM 71.8°F22.1°C 44.8°F7.1°C 38% 9.1 mph NE14.6 kmh NE 18.0 mph29.0 kmh 30.31 in1026.4 mb 0.00 in0.0 mm 0.00 in0.0 mm 0.00 in0.0 mm
10:05 AM 72.2°F22.3°C 45.2°F7.3°C 38% 10.3 mph NE16.6 kmh NE 18.0 mph29.0 kmh 30.31 in1026.4 mb 0.00 in0.0 mm 0.00 in0.0 mm 0.00 in0.0 mm
10:10 AM 72.0°F22.2°C 45.0°F7.2°C 38% 10.5 mph NE16.9 kmh NE 18.0 mph29.0 kmh 30.31 in1026.4 mb 0.00 in0.0 mm 0.00 in0.0 mm 0.00 in0.0 mm
10:15 AM 72.5°F22.5°C 45.4°F7.4°C 38% 10.5 mph NE16.9 kmh NE 18.0 mph29.0 kmh 30.31 in1026.4 mb 0.00 in0.0 mm 0.00 in0.0 mm 0.00 in0.0 mm
10:20 AM 72.7°F22.6°C 45.6°F7.6°C 38% 10.5 mph NE16.9 kmh NE 18.0 mph29.0 kmh 30.31 in1026.4 mb 0.00 in0.0 mm 0.00 in0.0 mm 0.00 in0.0 mm
10:25 AM 72.8°F22.7°C 45.0°F7.2°C 37% 10.3 mph NE16.6 kmh NE 25.0 mph40.2 kmh 30.31 in1026.4 mb 0.00 in0.0 mm 0.00 in0.0 mm 0.00 in0.0 mm
10:30 AM 72.5°F22.5°C 45.4°F7.4°C 38% 10.9 mph NE17.5 kmh NE 25.0 mph40.2 kmh 30.30 in1026.1 mb 0.00 in0.0 mm 0.00 in0.0 mm 0.00 in0.0 mm
10:35 AM 73.0°F22.8°C 45.9°F7.7°C 38% 11.5 mph NE18.5 kmh NE 18.0 mph29.0 kmh 30.30 in1026.1 mb 0.00 in0.0 mm 0.00 in0.0 mm 0.00 in0.0 mm
10:40 AM 72.8°F22.7°C 45.0°F7.2°C 37% 10.8 mph NE17.4 kmh NE 21.0 mph33.8 kmh 30.30 in1026.1 mb 0.00 in0.0 mm 0.00 in0.0 mm 0.00 in0.0 mm
10:45 AM 72.7°F22.6°C 45.6°F7.6°C 38% 10.5 mph NE16.9 kmh NE 21.0 mph33.8 kmh 30.30 in1026.1 mb 0.00 in0.0 mm 0.00 in0.0 mm 0.00 in0.0 mm
10:50 AM 73.1°F22.8°C 46.0°F7.8°C 38% 10.8 mph NE17.4 kmh NE 19.0 mph30.6 kmh 30.30 in1026.1 mb 0.00 in0.0 mm 0.00 in0.0 mm 0.00 in0.0 mm
10:55 AM 73.2°F22.9°C 45.4°F7.4°C 37% 10.0 mph NE16.1 kmh NE 18.0 mph29.0 kmh 30.30 in1026.1 mb 0.00 in0.0 mm 0.00 in0.0 mm 0.00 in0.0 mm
11:00 AM 73.1°F22.8°C 46.0°F7.8°C 38% 9.6 mph NE15.4 kmh NE 19.0 mph30.6 kmh 30.30 in1026.1 mb 0.00 in0.0 mm 0.00 in0.0 mm 0.00 in0.0 mm
11:05 AM 72.9°F22.7°C 45.8°F7.7°C 38% 10.4 mph NE16.7 kmh NE 20.0 mph32.2 kmh 30.30 in1026.1 mb 0.00 in0.0 mm 0.00 in0.0 mm 0.00 in0.0 mm
11:10 AM 73.1°F22.8°C 46.0°F7.8°C 38% 11.1 mph NE17.9 kmh NE 20.0 mph32.2 kmh 30.30 in1026.1 mb 0.00 in0.0 mm 0.00 in0.0 mm 0.00 in0.0 mm
11:15 AM 73.4°F23.0°C 46.2°F7.9°C 38% 10.8 mph NE17.4 kmh NE 20.0 mph32.2 kmh 30.30 in1026.1 mb 0.00 in0.0 mm 0.00 in0.0 mm 0.00 in0.0 mm
11:20 AM 73.7°F23.2°C 46.5°F8.1°C 38% 10.0 mph NE16.1 kmh NE 19.0 mph30.6 kmh 30.30 in1026.1 mb 0.00 in0.0 mm 0.00 in0.0 mm 0.00 in0.0 mm
11:25 AM 73.6°F23.1°C 45.7°F7.6°C 37% 10.0 mph NE16.1 kmh NE 19.0 mph30.6 kmh 30.30 in1026.1 mb 0.00 in0.0 mm 0.00 in0.0 mm 0.00 in0.0 mm
11:30 AM 73.5°F23.1°C 46.3°F7.9°C 38% 10.7 mph NE17.2 kmh NE 19.0 mph30.6 kmh 30.29 in1025.7 mb 0.00 in0.0 mm 0.00 in0.0 mm 0.00 in0.0 mm
11:35 AM 73.5°F23.1°C 46.3°F7.9°C 38% 10.7 mph NE17.2 kmh NE 19.0 mph30.6 kmh 30.29 in1025.7 mb 0.00 in0.0 mm 0.00 in0.0 mm 0.00 in0.0 mm
11:40 AM 73.7°F23.2°C 46.5°F8.1°C 38% 10.4 mph NE16.7 kmh NE 19.0 mph30.6 kmh 30.28 in1025.4 mb 0.00 in0.0 mm 0.00 in0.0 mm 0.00 in0.0 mm
11:45 AM 74.1°F23.4°C 46.2°F7.9°C 37% 10.0 mph NE16.1 kmh NE 15.0 mph24.1 kmh 30.28 in1025.4 mb 0.00 in0.0 mm 0.00 in0.0 mm 0.00 in0.0 mm
11:50 AM 74.5°F23.6°C 46.5°F8.1°C 37% 9.4 mph NE15.1 kmh NE 17.0 mph27.4 kmh 30.28 in1025.4 mb 0.00 in0.0 mm 0.00 in0.0 mm 0.00 in0.0 mm
11:55 AM 74.2°F23.4°C 46.2°F7.9°C 37% 10.0 mph NE16.1 kmh NE 22.0 mph35.4 kmh 30.27 in1025.1 mb 0.00 in0.0 mm 0.00 in0.0 mm 0.00 in0.0 mm
12:00 PM 74.4°F23.6°C 46.4°F8.0°C 37% 10.8 mph NE17.4 kmh NE 22.0 mph35.4 kmh 30.28 in1025.4 mb 0.00 in0.0 mm 0.00 in0.0 mm 0.00 in0.0 mm
12:05 PM 74.7°F23.7°C 46.7°F8.2°C 37% 10.9 mph NE17.5 kmh NE 21.0 mph33.8 kmh 30.28 in1025.4 mb 0.00 in0.0 mm 0.00 in0.0 mm 0.00 in0.0 mm
12:10 PM 74.5°F23.6°C 46.5°F8.1°C 37% 10.3 mph NE16.6 kmh NE 22.0 mph35.4 kmh 30.27 in1025.1 mb 0.00 in0.0 mm 0.00 in0.0 mm 0.00 in0.0 mm
12:15 PM 74.8°F23.8°C 46.8°F8.2°C 37% 9.7 mph NE15.6 kmh NE 22.0 mph35.4 kmh 30.27 in1025.1 mb 0.00 in0.0 mm 0.00 in0.0 mm 0.00 in0.0 mm
12:20 PM 75.1°F23.9°C 46.3°F7.9°C 36% 9.8 mph NE15.8 kmh NE 17.0 mph27.4 kmh 30.27 in1025.1 mb 0.00 in0.0 mm 0.00 in0.0 mm 0.00 in0.0 mm
12:25 PM 74.8°F23.8°C 46.1°F7.8°C 36% 10.2 mph NE16.4 kmh NE 18.0 mph29.0 kmh 30.27 in1025.1 mb 0.00 in0.0 mm 0.00 in0.0 mm 0.00 in0.0 mm
12:30 PM 74.9°F23.8°C 46.1°F7.8°C 36% 10.6 mph NE17.1 kmh NE 20.0 mph32.2 kmh 30.27 in1025.1 mb 0.00 in0.0 mm 0.00 in0.0 mm 0.00 in0.0 mm
12:35 PM 74.9°F23.8°C 46.1°F7.8°C 36% 10.6 mph NE17.1 kmh NE 21.0 mph33.8 kmh 30.26 in1024.7 mb 0.00 in0.0 mm 0.00 in0.0 mm 0.00 in0.0 mm
12:40 PM 75.3°F24.1°C 45.7°F7.6°C 35% 10.0 mph NE16.1 kmh NE 21.0 mph33.8 kmh 30.26 in1024.7 mb 0.00 in0.0 mm 0.00 in0.0 mm 0.00 in0.0 mm
12:45 PM 75.7°F24.3°C 46.8°F8.2°C 36% 9.2 mph NE14.8 kmh NE 15.0 mph24.1 kmh 30.26 in1024.7 mb 0.00 in0.0 mm 0.00 in0.0 mm 0.00 in0.0 mm
12:50 PM 75.7°F24.3°C 46.8°F8.2°C 36% 8.8 mph NE14.2 kmh NE 21.0 mph33.8 kmh 30.26 in1024.7 mb 0.00 in0.0 mm 0.00 in0.0 mm 0.00 in0.0 mm
12:55 PM 75.9°F24.4°C 46.3°F7.9°C 35% 9.2 mph NE14.8 kmh NE 21.0 mph33.8 kmh 30.26 in1024.7 mb 0.00 in0.0 mm 0.00 in0.0 mm 0.00 in0.0 mm
01:00 PM 75.7°F24.3°C 46.1°F7.8°C 35% 10.2 mph NE16.4 kmh NE 21.0 mph33.8 kmh 30.26 in1024.7 mb 0.00 in0.0 mm 0.00 in0.0 mm 0.00 in0.0 mm
01:05 PM 76.0°F24.4°C 46.4°F8.0°C 35% 11.0 mph NE17.7 kmh NE 21.0 mph33.8 kmh 30.26 in1024.7 mb 0.00 in0.0 mm 0.00 in0.0 mm 0.00 in0.0 mm
01:10 PM 76.0°F24.4°C 46.4°F8.0°C 35% 10.8 mph NE17.4 kmh NE 20.0 mph32.2 kmh 30.26 in1024.7 mb 0.00 in0.0 mm 0.00 in0.0 mm 0.00 in0.0 mm
01:15 PM 76.2°F24.6°C 46.5°F8.1°C 35% 10.3 mph NE16.6 kmh NE 20.0 mph32.2 kmh 30.26 in1024.7 mb 0.00 in0.0 mm 0.00 in0.0 mm 0.00 in0.0 mm
01:20 PM 76.3°F24.6°C 46.6°F8.1°C 35% 10.0 mph NE16.1 kmh NE 18.0 mph29.0 kmh 30.26 in1024.7 mb 0.00 in0.0 mm 0.00 in0.0 mm 0.00 in0.0 mm
01:25 PM 76.4°F24.7°C 46.7°F8.2°C 35% 9.5 mph NE15.3 kmh NE 17.0 mph27.4 kmh 30.26 in1024.7 mb 0.00 in0.0 mm 0.00 in0.0 mm 0.00 in0.0 mm
01:30 PM 76.7°F24.8°C 47.0°F8.3°C 35% 9.0 mph NE14.5 kmh NE 17.0 mph27.4 kmh 30.25 in1024.4 mb 0.00 in0.0 mm 0.00 in0.0 mm 0.00 in0.0 mm
01:35 PM 76.6°F24.8°C 46.9°F8.3°C 35% 9.0 mph NE14.5 kmh NE 17.0 mph27.4 kmh 30.25 in1024.4 mb 0.00 in0.0 mm 0.00 in0.0 mm 0.00 in0.0 mm
01:40 PM 76.8°F24.9°C 47.1°F8.4°C 35% 9.0 mph NE14.5 kmh NE 17.0 mph27.4 kmh 30.25 in1024.4 mb 0.00 in0.0 mm 0.00 in0.0 mm 0.00 in0.0 mm
01:45 PM 76.7°F24.8°C 47.0°F8.3°C 35% 9.0 mph NE14.5 kmh NE 18.0 mph29.0 kmh 30.25 in1024.4 mb 0.00 in0.0 mm 0.00 in0.0 mm 0.00 in0.0 mm
01:50 PM 77.0°F25.0°C 46.5°F8.1°C 34% 9.1 mph NE14.6 kmh NE 18.0 mph29.0 kmh 30.25 in1024.4 mb 0.00 in0.0 mm 0.00 in0.0 mm 0.00 in0.0 mm
01:55 PM 77.2°F25.1°C 47.4°F8.6°C 35% 9.5 mph NE15.3 kmh NE 16.0 mph25.7 kmh 30.24 in1024.0 mb 0.00 in0.0 mm 0.00 in0.0 mm 0.00 in0.0 mm
02:00 PM 77.4°F25.2°C 46.8°F8.2°C 34% 9.4 mph NE15.1 kmh NE 16.0 mph25.7 kmh 30.25 in1024.4 mb 0.00 in0.0 mm 0.00 in0.0 mm 0.00 in0.0 mm
02:05 PM 77.1°F25.1°C 47.3°F8.5°C 35% 9.0 mph NE14.5 kmh NE 17.0 mph27.4 kmh 30.24 in1024.0 mb 0.00 in0.0 mm 0.00 in0.0 mm 0.00 in0.0 mm
02:10 PM 77.1°F25.1°C 47.3°F8.5°C 35% 9.4 mph NE15.1 kmh NE 17.0 mph27.4 kmh 30.24 in1024.0 mb 0.00 in0.0 mm 0.00 in0.0 mm 0.00 in0.0 mm
02:15 PM 77.3°F25.2°C 46.7°F8.2°C 34% 9.9 mph NE15.9 kmh NE 17.0 mph27.4 kmh 30.24 in1024.0 mb 0.00 in0.0 mm 0.00 in0.0 mm 0.00 in0.0 mm
02:20 PM 77.2°F25.1°C 46.7°F8.2°C 34% 10.0 mph NE16.1 kmh NE 17.0 mph27.4 kmh 30.24 in1024.0 mb 0.00 in0.0 mm 0.00 in0.0 mm 0.00 in0.0 mm
02:25 PM 77.2°F25.1°C 47.4°F8.6°C 35% 10.0 mph NE16.1 kmh NE 21.0 mph33.8 kmh 30.24 in1024.0 mb 0.00 in0.0 mm 0.00 in0.0 mm 0.00 in0.0 mm
02:30 PM 77.1°F25.1°C 47.3°F8.5°C 35% 10.4 mph NE16.7 kmh NE 21.0 mph33.8 kmh 30.23 in1023.7 mb 0.00 in0.0 mm 0.00 in0.0 mm 0.00 in0.0 mm
02:35 PM 77.2°F25.1°C 47.4°F8.6°C 35% 10.9 mph NE17.5 kmh NE 20.0 mph32.2 kmh 30.24 in1024.0 mb 0.00 in0.0 mm 0.00 in0.0 mm 0.00 in0.0 mm
02:40 PM 77.1°F25.1°C 47.3°F8.5°C 35% 10.8 mph NE17.4 kmh NE 18.0 mph29.0 kmh 30.23 in1023.7 mb 0.00 in0.0 mm 0.00 in0.0 mm 0.00 in0.0 mm
02:45 PM 77.4°F25.2°C 48.3°F9.1°C 36% 10.7 mph NE17.2 kmh NE 16.0 mph25.7 kmh 30.23 in1023.7 mb 0.00 in0.0 mm 0.00 in0.0 mm 0.00 in0.0 mm
02:50 PM 77.8°F25.4°C 48.7°F9.3°C 36% 10.6 mph NE17.1 kmh NE 17.0 mph27.4 kmh 30.23 in1023.7 mb 0.00 in0.0 mm 0.00 in0.0 mm 0.00 in0.0 mm
02:55 PM 78.0°F25.6°C 48.1°F8.9°C 35% 10.2 mph NE16.4 kmh NE 19.0 mph30.6 kmh 30.23 in1023.7 mb 0.00 in0.0 mm 0.00 in0.0 mm 0.00 in0.0 mm
03:00 PM 77.8°F25.4°C 47.9°F8.8°C 35% 9.6 mph NE15.4 kmh NE 19.0 mph30.6 kmh 30.23 in1023.7 mb 0.00 in0.0 mm 0.00 in0.0 mm 0.00 in0.0 mm
03:05 PM 77.6°F25.3°C 48.5°F9.2°C 36% 9.6 mph NE15.4 kmh NE 18.0 mph29.0 kmh 30.23 in1023.7 mb 0.00 in0.0 mm 0.00 in0.0 mm 0.00 in0.0 mm
03:10 PM 77.4°F25.2°C 49.1°F9.5°C 37% 10.4 mph NE16.7 kmh NE 18.0 mph29.0 kmh 30.22 in1023.4 mb 0.00 in0.0 mm 0.00 in0.0 mm 0.00 in0.0 mm
03:15 PM 77.8°F25.4°C 49.4°F9.7°C 37% 10.9 mph NE17.5 kmh NE 21.0 mph33.8 kmh 30.22 in1023.4 mb 0.00 in0.0 mm 0.00 in0.0 mm 0.00 in0.0 mm
03:20 PM 77.8°F25.4°C 49.4°F9.7°C 37% 10.8 mph NE17.4 kmh NE 21.0 mph33.8 kmh 30.23 in1023.7 mb 0.00 in0.0 mm 0.00 in0.0 mm 0.00 in0.0 mm
03:25 PM 77.4°F25.2°C 49.1°F9.5°C 37% 10.6 mph NE17.1 kmh NE 21.0 mph33.8 kmh 30.23 in1023.7 mb 0.00 in0.0 mm 0.00 in0.0 mm 0.00 in0.0 mm
03:30 PM 77.6°F25.3°C 49.3°F9.6°C 37% 10.4 mph NE16.7 kmh NE 21.0 mph33.8 kmh 30.22 in1023.4 mb 0.00 in0.0 mm 0.00 in0.0 mm 0.00 in0.0 mm
03:35 PM 77.4°F25.2°C 49.1°F9.5°C 37% 10.1 mph NE16.3 kmh NE 20.0 mph32.2 kmh 30.22 in1023.4 mb 0.00 in0.0 mm 0.00 in0.0 mm 0.00 in0.0 mm
03:40 PM 77.2°F25.1°C 49.6°F9.8°C 38% 10.6 mph NE17.1 kmh NE 20.0 mph32.2 kmh 30.22 in1023.4 mb 0.00 in0.0 mm 0.00 in0.0 mm 0.00 in0.0 mm
03:45 PM 77.4°F25.2°C 49.8°F9.9°C 38% 10.9 mph NE17.5 kmh NE 18.0 mph29.0 kmh 30.22 in1023.4 mb 0.00 in0.0 mm 0.00 in0.0 mm 0.00 in0.0 mm
03:50 PM 77.1°F25.1°C 49.5°F9.7°C 38% 10.2 mph NE16.4 kmh NE 18.0 mph29.0 kmh 30.22 in1023.4 mb 0.00 in0.0 mm 0.00 in0.0 mm 0.00 in0.0 mm
03:55 PM 76.9°F24.9°C 50.1°F10.1°C 39% 10.2 mph NE16.4 kmh NE 18.0 mph29.0 kmh 30.22 in1023.4 mb 0.00 in0.0 mm 0.00 in0.0 mm 0.00 in0.0 mm
04:00 PM 77.0°F25.0°C 50.1°F10.1°C 39% 10.7 mph NE17.2 kmh NE 20.0 mph32.2 kmh 30.22 in1023.4 mb 0.00 in0.0 mm 0.00 in0.0 mm 0.00 in0.0 mm
04:05 PM 76.7°F24.8°C 49.9°F9.9°C 39% 10.8 mph NE17.4 kmh NE 21.0 mph33.8 kmh 30.22 in1023.4 mb 0.00 in0.0 mm 0.00 in0.0 mm 0.00 in0.0 mm
04:10 PM 76.8°F24.9°C 50.0°F10.0°C 39% 11.0 mph NE17.7 kmh NE 21.0 mph33.8 kmh 30.22 in1023.4 mb 0.00 in0.0 mm 0.00 in0.0 mm 0.00 in0.0 mm
04:15 PM 76.4°F24.7°C 49.6°F9.8°C 39% 11.1 mph NE17.9 kmh NE 23.0 mph37.0 kmh 30.22 in1023.4 mb 0.00 in0.0 mm 0.00 in0.0 mm 0.00 in0.0 mm
04:20 PM 76.1°F24.5°C 50.0°F10.0°C 40% 11.6 mph NE18.7 kmh NE 23.0 mph37.0 kmh 30.22 in1023.4 mb 0.00 in0.0 mm 0.00 in0.0 mm 0.00 in0.0 mm
04:25 PM 76.1°F24.5°C 50.0°F10.0°C 40% 12.6 mph NE20.3 kmh NE 21.0 mph33.8 kmh 30.22 in1023.4 mb 0.00 in0.0 mm 0.00 in0.0 mm 0.00 in0.0 mm
04:30 PM 76.3°F24.6°C 50.2°F10.1°C 40% 12.2 mph NE19.6 kmh NE 19.0 mph30.6 kmh 30.22 in1023.4 mb 0.00 in0.0 mm 0.00 in0.0 mm 0.00 in0.0 mm
04:35 PM 76.4°F24.7°C 50.3°F10.2°C 40% 10.9 mph NE17.5 kmh NE 18.0 mph29.0 kmh 30.22 in1023.4 mb 0.00 in0.0 mm 0.00 in0.0 mm 0.00 in0.0 mm
04:40 PM 76.2°F24.6°C 50.1°F10.1°C 40% 10.4 mph NE16.7 kmh NE 19.0 mph30.6 kmh 30.22 in1023.4 mb 0.00 in0.0 mm 0.00 in0.0 mm 0.00 in0.0 mm
04:45 PM 76.0°F24.4°C 49.9°F9.9°C 40% 11.0 mph NE17.7 kmh NE 19.0 mph30.6 kmh 30.22 in1023.4 mb 0.00 in0.0 mm 0.00 in0.0 mm 0.00 in0.0 mm
04:50 PM 75.9°F24.4°C 49.8°F9.9°C 40% 11.3 mph NE18.2 kmh NE 18.0 mph29.0 kmh 30.22 in1023.4 mb 0.00 in0.0 mm 0.00 in0.0 mm 0.00 in0.0 mm
04:55 PM 75.8°F24.3°C 49.1°F9.5°C 39% 11.7 mph NE18.8 kmh NE 20.0 mph32.2 kmh 30.22 in1023.4 mb 0.00 in0.0 mm 0.00 in0.0 mm 0.00 in0.0 mm
05:00 PM 75.8°F24.3°C 49.8°F9.9°C 40% 11.8 mph NE19.0 kmh NE 20.0 mph32.2 kmh 30.22 in1023.4 mb 0.00 in0.0 mm 0.00 in0.0 mm 0.00 in0.0 mm
05:05 PM 75.5°F24.2°C 49.5°F9.7°C 40% 11.3 mph NE18.2 kmh NE 19.0 mph30.6 kmh 30.22 in1023.4 mb 0.00 in0.0 mm 0.00 in0.0 mm 0.00 in0.0 mm
05:10 PM 75.6°F24.2°C 48.9°F9.4°C 39% 11.3 mph NE18.2 kmh NE 19.0 mph30.6 kmh 30.22 in1023.4 mb 0.00 in0.0 mm 0.00 in0.0 mm 0.00 in0.0 mm
05:15 PM 75.7°F24.3°C 49.7°F9.8°C 40% 11.8 mph NE19.0 kmh NE 18.0 mph29.0 kmh 30.22 in1023.4 mb 0.00 in0.0 mm 0.00 in0.0 mm 0.00 in0.0 mm
05:20 PM 75.6°F24.2°C 48.9°F9.4°C 39% 11.7 mph NE18.8 kmh NE 19.0 mph30.6 kmh 30.22 in1023.4 mb 0.00 in0.0 mm 0.00 in0.0 mm 0.00 in0.0 mm
05:25 PM 75.5°F24.2°C 49.5°F9.7°C 40% 11.2 mph NE18.0 kmh NE 19.0 mph30.6 kmh 30.22 in1023.4 mb 0.00 in0.0 mm 0.00 in0.0 mm 0.00 in0.0 mm
05:30 PM 75.5°F24.2°C 48.8°F9.3°C 39% 10.9 mph NE17.5 kmh NE 16.0 mph25.7 kmh 30.22 in1023.4 mb 0.00 in0.0 mm 0.00 in0.0 mm 0.00 in0.0 mm
05:35 PM 75.2°F24.0°C 49.2°F9.6°C 40% 10.7 mph NE17.2 kmh NE 20.0 mph32.2 kmh 30.22 in1023.4 mb 0.00 in0.0 mm 0.00 in0.0 mm 0.00 in0.0 mm
05:40 PM 75.3°F24.1°C 49.3°F9.6°C 40% 10.5 mph NE16.9 kmh NE 20.0 mph32.2 kmh 30.22 in1023.4 mb 0.00 in0.0 mm 0.00 in0.0 mm 0.00 in0.0 mm
05:45 PM 75.2°F24.0°C 49.2°F9.6°C 40% 9.5 mph NE15.3 kmh NE 13.0 mph20.9 kmh 30.22 in1023.4 mb 0.00 in0.0 mm 0.00 in0.0 mm 0.00 in0.0 mm
05:50 PM 75.1°F23.9°C 48.4°F9.1°C 39% 8.7 mph NE14.0 kmh NE 18.0 mph29.0 kmh 30.22 in1023.4 mb 0.00 in0.0 mm 0.00 in0.0 mm 0.00 in0.0 mm
05:55 PM 74.9°F23.8°C 48.3°F9.1°C 39% 8.8 mph NE14.2 kmh NE 18.0 mph29.0 kmh 30.22 in1023.4 mb 0.00 in0.0 mm 0.00 in0.0 mm 0.00 in0.0 mm
06:00 PM 74.6°F23.7°C 48.7°F9.3°C 40% 9.1 mph NE14.6 kmh NE 19.0 mph30.6 kmh 30.22 in1023.4 mb 0.00 in0.0 mm 0.00 in0.0 mm 0.00 in0.0 mm
06:05 PM 74.5°F23.6°C 48.6°F9.2°C 40% 9.2 mph NE14.8 kmh NE 19.0 mph30.6 kmh 30.22 in1023.4 mb 0.00 in0.0 mm 0.00 in0.0 mm 0.00 in0.0 mm
06:10 PM 74.2°F23.4°C 48.3°F9.1°C 40% 9.1 mph NE14.6 kmh NE 16.0 mph25.7 kmh 30.21 in1023.0 mb 0.00 in0.0 mm 0.00 in0.0 mm 0.00 in0.0 mm
06:15 PM 74.1°F23.4°C 48.9°F9.4°C 41% 9.3 mph NE15.0 kmh NE 17.0 mph27.4 kmh 30.21 in1023.0 mb 0.00 in0.0 mm 0.00 in0.0 mm 0.00 in0.0 mm
06:20 PM 73.9°F23.3°C 48.7°F9.3°C 41% 9.8 mph NE15.8 kmh NE 17.0 mph27.4 kmh 30.22 in1023.4 mb 0.00 in0.0 mm 0.00 in0.0 mm 0.00 in0.0 mm
06:25 PM 73.7°F23.2°C 48.5°F9.2°C 41% 9.9 mph NE15.9 kmh NE 15.0 mph24.1 kmh 30.22 in1023.4 mb 0.00 in0.0 mm 0.00 in0.0 mm 0.00 in0.0 mm
06:30 PM 73.5°F23.1°C 48.4°F9.1°C 41% 9.4 mph NE15.1 kmh NE 16.0 mph25.7 kmh 30.22 in1023.4 mb 0.00 in0.0 mm 0.00 in0.0 mm 0.00 in0.0 mm
06:35 PM 73.4°F23.0°C 48.9°F9.4°C 42% 9.0 mph NE14.5 kmh NE 16.0 mph25.7 kmh 30.22 in1023.4 mb 0.00 in0.0 mm 0.00 in0.0 mm 0.00 in0.0 mm
06:40 PM 73.2°F22.9°C 48.7°F9.3°C 42% 8.6 mph NE13.8 kmh NE 13.0 mph20.9 kmh 30.22 in1023.4 mb 0.00 in0.0 mm 0.00 in0.0 mm 0.00 in0.0 mm
06:45 PM 73.0°F22.8°C 48.5°F9.2°C 42% 8.0 mph NE12.9 kmh NE 15.0 mph24.1 kmh 30.22 in1023.4 mb 0.00 in0.0 mm 0.00 in0.0 mm 0.00 in0.0 mm
06:50 PM 72.8°F22.7°C 49.0°F9.4°C 43% 7.8 mph NE12.6 kmh NE 15.0 mph24.1 kmh 30.22 in1023.4 mb 0.00 in0.0 mm 0.00 in0.0 mm 0.00 in0.0 mm
06:55 PM 72.5°F22.5°C 48.7°F9.3°C 43% 7.6 mph NE12.2 kmh NE 15.0 mph24.1 kmh 30.22 in1023.4 mb 0.00 in0.0 mm 0.00 in0.0 mm 0.00 in0.0 mm
07:00 PM 72.3°F22.4°C 48.5°F9.2°C 43% 7.1 mph NE11.4 kmh NE 15.0 mph24.1 kmh 30.22 in1023.4 mb 0.00 in0.0 mm 0.00 in0.0 mm 0.00 in0.0 mm
07:05 PM 72.1°F22.3°C 48.4°F9.1°C 43% 6.9 mph NE11.1 kmh NE 13.0 mph20.9 kmh 30.22 in1023.4 mb 0.00 in0.0 mm 0.00 in0.0 mm 0.00 in0.0 mm
07:10 PM 71.9°F22.2°C 48.2°F9.0°C 43% 6.8 mph NE10.9 kmh NE 13.0 mph20.9 kmh 30.23 in1023.7 mb 0.00 in0.0 mm 0.00 in0.0 mm 0.00 in0.0 mm
07:15 PM 71.8°F22.1°C 48.1°F8.9°C 43% 6.4 mph NE10.3 kmh NE 13.0 mph20.9 kmh 30.23 in1023.7 mb 0.00 in0.0 mm 0.00 in0.0 mm 0.00 in0.0 mm
07:20 PM 71.6°F22.0°C 47.9°F8.8°C 43% 6.0 mph NE9.7 kmh NE 13.0 mph20.9 kmh 30.23 in1023.7 mb 0.00 in0.0 mm 0.00 in0.0 mm 0.00 in0.0 mm
07:25 PM 71.4°F21.9°C 47.7°F8.7°C 43% 5.6 mph NE9.0 kmh NE 11.0 mph17.7 kmh 30.23 in1023.7 mb 0.00 in0.0 mm 0.00 in0.0 mm 0.00 in0.0 mm
07:30 PM 71.2°F21.8°C 47.6°F8.7°C 43% 5.3 mph NE8.5 kmh NE 11.0 mph17.7 kmh 30.23 in1023.7 mb 0.00 in0.0 mm 0.00 in0.0 mm 0.00 in0.0 mm
07:35 PM 71.1°F21.7°C 47.5°F8.6°C 43% 5.7 mph NE9.2 kmh NE 12.0 mph19.3 kmh 30.23 in1023.7 mb 0.00 in0.0 mm 0.00 in0.0 mm 0.00 in0.0 mm
07:40 PM 71.1°F21.7°C 47.5°F8.6°C 43% 6.3 mph NE10.1 kmh NE 14.0 mph22.5 kmh 30.23 in1023.7 mb 0.00 in0.0 mm 0.00 in0.0 mm 0.00 in0.0 mm
07:45 PM 71.0°F21.7°C 47.4°F8.6°C 43% 6.8 mph NE10.9 kmh NE 14.0 mph22.5 kmh 30.23 in1023.7 mb 0.00 in0.0 mm 0.00 in0.0 mm 0.00 in0.0 mm
07:50 PM 70.9°F21.6°C 47.3°F8.5°C 43% 7.1 mph NE11.4 kmh NE 17.0 mph27.4 kmh 30.22 in1023.4 mb 0.00 in0.0 mm 0.00 in0.0 mm 0.00 in0.0 mm
07:55 PM 70.8°F21.6°C 47.2°F8.4°C 43% 7.6 mph NE12.2 kmh NE 17.0 mph27.4 kmh 30.22 in1023.4 mb 0.00 in0.0 mm 0.00 in0.0 mm 0.00 in0.0 mm
08:00 PM 70.8°F21.6°C 47.2°F8.4°C 43% 8.7 mph NE14.0 kmh NE 19.0 mph30.6 kmh 30.22 in1023.4 mb 0.00 in0.0 mm 0.00 in0.0 mm 0.00 in0.0 mm
08:05 PM 70.7°F21.5°C 47.7°F8.7°C 44% 9.7 mph NE15.6 kmh NE 19.0 mph30.6 kmh 30.22 in1023.4 mb 0.00 in0.0 mm 0.00 in0.0 mm 0.00 in0.0 mm
08:10 PM 70.6°F21.4°C 47.6°F8.7°C 44% 9.7 mph NE15.6 kmh NE 16.0 mph25.7 kmh 30.23 in1023.7 mb 0.00 in0.0 mm 0.00 in0.0 mm 0.00 in0.0 mm
08:15 PM 70.4°F21.3°C 47.4°F8.6°C 44% 9.2 mph NE14.8 kmh NE 16.0 mph25.7 kmh 30.23 in1023.7 mb 0.00 in0.0 mm 0.00 in0.0 mm 0.00 in0.0 mm
08:20 PM 70.4°F21.3°C 47.4°F8.6°C 44% 9.1 mph NE14.6 kmh NE 17.0 mph27.4 kmh 30.23 in1023.7 mb 0.00 in0.0 mm 0.00 in0.0 mm 0.00 in0.0 mm
08:25 PM 70.4°F21.3°C 47.4°F8.6°C 44% 9.5 mph NE15.3 kmh NE 17.0 mph27.4 kmh 30.23 in1023.7 mb 0.00 in0.0 mm 0.00 in0.0 mm 0.00 in0.0 mm
08:30 PM 70.4°F21.3°C 47.4°F8.6°C 44% 9.9 mph NE15.9 kmh NE 17.0 mph27.4 kmh 30.23 in1023.7 mb 0.00 in0.0 mm 0.00 in0.0 mm 0.00 in0.0 mm
08:35 PM 70.2°F21.2°C 47.3°F8.5°C 44% 10.1 mph NE16.3 kmh NE 16.0 mph25.7 kmh 30.23 in1023.7 mb 0.00 in0.0 mm 0.00 in0.0 mm 0.00 in0.0 mm
08:40 PM 70.2°F21.2°C 47.3°F8.5°C 44% 10.0 mph NE16.1 kmh NE 16.0 mph25.7 kmh 30.23 in1023.7 mb 0.00 in0.0 mm 0.00 in0.0 mm 0.00 in0.0 mm
08:45 PM 70.1°F21.2°C 47.2°F8.4°C 44% 9.4 mph NE15.1 kmh NE 16.0 mph25.7 kmh 30.23 in1023.7 mb 0.00 in0.0 mm 0.00 in0.0 mm 0.00 in0.0 mm
08:50 PM 70.1°F21.2°C 47.2°F8.4°C 44% 9.0 mph NE14.5 kmh NE 16.0 mph25.7 kmh 30.23 in1023.7 mb 0.00 in0.0 mm 0.00 in0.0 mm 0.00 in0.0 mm
08:55 PM 70.1°F21.2°C 47.2°F8.4°C 44% 9.0 mph NE14.5 kmh NE 13.0 mph20.9 kmh 30.23 in1023.7 mb 0.00 in0.0 mm 0.00 in0.0 mm 0.00 in0.0 mm
09:00 PM 69.9°F21.1°C 47.6°F8.7°C 45% 9.0 mph NE14.5 kmh NE 13.0 mph20.9 kmh 30.23 in1023.7 mb 0.00 in0.0 mm 0.00 in0.0 mm 0.00 in0.0 mm
09:05 PM 69.7°F20.9°C 47.4°F8.6°C 45% 8.6 mph NE13.8 kmh NE 13.0 mph20.9 kmh 30.23 in1023.7 mb 0.00 in0.0 mm 0.00 in0.0 mm 0.00 in0.0 mm
09:10 PM 69.5°F20.8°C 47.2°F8.4°C 45% 8.6 mph NE13.8 kmh NE 13.0 mph20.9 kmh 30.22 in1023.4 mb 0.00 in0.0 mm 0.00 in0.0 mm 0.00 in0.0 mm
09:15 PM 69.4°F20.8°C 47.1°F8.4°C 45% 9.0 mph NE14.5 kmh NE 14.0 mph22.5 kmh 30.23 in1023.7 mb 0.00 in0.0 mm 0.00 in0.0 mm 0.00 in0.0 mm
09:20 PM 69.5°F20.8°C 47.2°F8.4°C 45% 9.2 mph NE14.8 kmh NE 16.0 mph25.7 kmh 30.23 in1023.7 mb 0.00 in0.0 mm 0.00 in0.0 mm 0.00 in0.0 mm
09:25 PM 69.6°F20.9°C 47.3°F8.5°C 45% 9.7 mph NE15.6 kmh NE 16.0 mph25.7 kmh 30.23 in1023.7 mb 0.00 in0.0 mm 0.00 in0.0 mm 0.00 in0.0 mm
09:30 PM 69.6°F20.9°C 47.3°F8.5°C 45% 9.7 mph NE15.6 kmh NE 13.0 mph20.9 kmh 30.23 in1023.7 mb 0.00 in0.0 mm 0.00 in0.0 mm 0.00 in0.0 mm
09:35 PM 69.4°F20.8°C 47.1°F8.4°C 45% 8.7 mph NE14.0 kmh NE 15.0 mph24.1 kmh 30.23 in1023.7 mb 0.00 in0.0 mm 0.00 in0.0 mm 0.00 in0.0 mm
09:40 PM 69.3°F20.7°C 47.0°F8.3°C 45% 7.6 mph NE12.2 kmh NE 15.0 mph24.1 kmh 30.23 in1023.7 mb 0.00 in0.0 mm 0.00 in0.0 mm 0.00 in0.0 mm
09:45 PM 69.1°F20.6°C 47.4°F8.6°C 46% 6.6 mph NE10.6 kmh NE 11.0 mph17.7 kmh 30.23 in1023.7 mb 0.00 in0.0 mm 0.00 in0.0 mm 0.00 in0.0 mm
09:50 PM 69.0°F20.6°C 47.4°F8.6°C 46% 6.0 mph NE9.7 kmh NE 9.0 mph14.5 kmh 30.23 in1023.7 mb 0.00 in0.0 mm 0.00 in0.0 mm 0.00 in0.0 mm
09:55 PM 69.0°F20.6°C 47.4°F8.6°C 46% 5.5 mph NE8.9 kmh NE 14.0 mph22.5 kmh 30.23 in1023.7 mb 0.00 in0.0 mm 0.00 in0.0 mm 0.00 in0.0 mm
10:00 PM 69.0°F20.6°C 47.4°F8.6°C 46% 6.0 mph NE9.7 kmh NE 14.0 mph22.5 kmh 30.23 in1023.7 mb 0.00 in0.0 mm 0.00 in0.0 mm 0.00 in0.0 mm
10:05 PM 69.1°F20.6°C 47.4°F8.6°C 46% 7.3 mph NE11.7 kmh NE 14.0 mph22.5 kmh 30.22 in1023.4 mb 0.00 in0.0 mm 0.00 in0.0 mm 0.00 in0.0 mm
10:10 PM 69.1°F20.6°C 47.4°F8.6°C 46% 8.0 mph NE12.9 kmh NE 14.0 mph22.5 kmh 30.22 in1023.4 mb 0.00 in0.0 mm 0.00 in0.0 mm 0.00 in0.0 mm
10:15 PM 69.1°F20.6°C 47.4°F8.6°C 46% 8.0 mph NE12.9 kmh NE 13.0 mph20.9 kmh 30.23 in1023.7 mb 0.00 in0.0 mm 0.00 in0.0 mm 0.00 in0.0 mm
10:20 PM 69.1°F20.6°C 47.4°F8.6°C 46% 7.6 mph NE12.2 kmh NE 13.0 mph20.9 kmh 30.23 in1023.7 mb 0.00 in0.0 mm 0.00 in0.0 mm 0.00 in0.0 mm
10:25 PM 69.2°F20.7°C 47.5°F8.6°C 46% 7.1 mph NE11.4 kmh NE 13.0 mph20.9 kmh 30.23 in1023.7 mb 0.00 in0.0 mm 0.00 in0.0 mm 0.00 in0.0 mm
10:30 PM 69.2°F20.7°C 46.9°F8.3°C 45% 6.9 mph NE11.1 kmh NE 13.0 mph20.9 kmh 30.23 in1023.7 mb 0.00 in0.0 mm 0.00 in0.0 mm 0.00 in0.0 mm
10:35 PM 69.3°F20.7°C 47.0°F8.3°C 45% 6.3 mph NE10.1 kmh NE 11.0 mph17.7 kmh 30.23 in1023.7 mb 0.00 in0.0 mm 0.00 in0.0 mm 0.00 in0.0 mm
10:40 PM 69.2°F20.7°C 46.9°F8.3°C 45% 5.9 mph NE9.5 kmh NE 11.0 mph17.7 kmh 30.22 in1023.4 mb 0.00 in0.0 mm 0.00 in0.0 mm 0.00 in0.0 mm
10:45 PM 69.0°F20.6°C 47.4°F8.6°C 46% 5.7 mph NE9.2 kmh NE 11.0 mph17.7 kmh 30.22 in1023.4 mb 0.00 in0.0 mm 0.00 in0.0 mm 0.00 in0.0 mm
10:50 PM 68.9°F20.5°C 47.3°F8.5°C 46% 5.2 mph NE8.4 kmh NE 11.0 mph17.7 kmh 30.22 in1023.4 mb 0.00 in0.0 mm 0.00 in0.0 mm 0.00 in0.0 mm
10:55 PM 69.0°F20.6°C 47.4°F8.6°C 46% 5.1 mph NE8.2 kmh NE 14.0 mph22.5 kmh 30.22 in1023.4 mb 0.00 in0.0 mm 0.00 in0.0 mm 0.00 in0.0 mm
11:00 PM 68.9°F20.5°C 47.3°F8.5°C 46% 5.9 mph NE9.5 kmh NE 15.0 mph24.1 kmh 30.22 in1023.4 mb 0.00 in0.0 mm 0.00 in0.0 mm 0.00 in0.0 mm
11:05 PM 68.8°F20.4°C 47.2°F8.4°C 46% 7.2 mph NE11.6 kmh NE 15.0 mph24.1 kmh 30.21 in1023.0 mb 0.00 in0.0 mm 0.00 in0.0 mm 0.00 in0.0 mm
11:10 PM 68.9°F20.5°C 47.3°F8.5°C 46% 8.3 mph NE13.4 kmh NE 17.0 mph27.4 kmh 30.21 in1023.0 mb 0.00 in0.0 mm 0.00 in0.0 mm 0.00 in0.0 mm
11:15 PM 68.7°F20.4°C 47.1°F8.4°C 46% 8.9 mph NE14.3 kmh NE 17.0 mph27.4 kmh 30.22 in1023.4 mb 0.00 in0.0 mm 0.00 in0.0 mm 0.00 in0.0 mm
11:20 PM 68.7°F20.4°C 47.6°F8.7°C 47% 8.8 mph NE14.2 kmh NE 14.0 mph22.5 kmh 30.21 in1023.0 mb 0.00 in0.0 mm 0.00 in0.0 mm 0.00 in0.0 mm
11:25 PM 68.8°F20.4°C 47.2°F8.4°C 46% 8.4 mph NE13.5 kmh NE 14.0 mph22.5 kmh 30.21 in1023.0 mb 0.00 in0.0 mm 0.00 in0.0 mm 0.00 in0.0 mm
11:30 PM 68.7°F20.4°C 47.1°F8.4°C 46% 8.4 mph NE13.5 kmh NE 14.0 mph22.5 kmh 30.21 in1023.0 mb 0.00 in0.0 mm 0.00 in0.0 mm 0.00 in0.0 mm
11:35 PM 68.8°F20.4°C 47.2°F8.4°C 46% 8.7 mph NE14.0 kmh NE 17.0 mph27.4 kmh 30.21 in1023.0 mb 0.00 in0.0 mm 0.00 in0.0 mm 0.00 in0.0 mm
11:40 PM 68.8°F20.4°C 47.2°F8.4°C 46% 8.9 mph NE14.3 kmh NE 17.0 mph27.4 kmh 30.21 in1023.0 mb 0.00 in0.0 mm 0.00 in0.0 mm 0.00 in0.0 mm
11:45 PM 68.9°F20.5°C 47.3°F8.5°C 46% 9.0 mph NE14.5 kmh NE 17.0 mph27.4 kmh 30.21 in1023.0 mb 0.00 in0.0 mm 0.00 in0.0 mm 0.00 in0.0 mm
11:50 PM 68.8°F20.4°C 47.2°F8.4°C 46% 9.5 mph NE15.3 kmh NE 17.0 mph27.4 kmh 30.21 in1023.0 mb 0.00 in0.0 mm 0.00 in0.0 mm 0.00 in0.0 mm
11:55 PM 68.5°F20.3°C 46.9°F8.3°C 46% 10.0 mph NE16.1 kmh NE 15.0 mph24.1 kmh 30.21 in1023.0 mb 0.00 in0.0 mm 0.00 in0.0 mm 0.00 in0.0 mm